createdAt,value
2023-03-19T01:37:02.146Z,100049
2023-03-19T01:42:52.836Z,100044
2023-03-19T01:48:44.883Z,100044
2023-03-19T01:54:35.732Z,100038
2023-03-19T02:00:27.470Z,100038
2023-03-19T02:06:18.530Z,100034
2023-03-19T02:12:10.306Z,100047
2023-03-19T02:18:01.577Z,100046
2023-03-19T02:23:53.626Z,100044
2023-03-19T02:29:45.070Z,100049
2023-03-19T02:35:38.995Z,100050
2023-03-19T02:41:30.166Z,100045
2023-03-19T02:47:21.464Z,100042
2023-03-19T02:53:12.233Z,100046
2023-03-19T02:59:03.610Z,100035
2023-03-19T03:04:54.641Z,100041
2023-03-19T03:10:46.042Z,100031
2023-03-19T03:16:37.138Z,100031
2023-03-19T03:22:30.439Z,100031
2023-03-19T03:28:21.486Z,100031
2023-03-19T03:34:12.827Z,100037
2023-03-19T03:40:04.017Z,100037
2023-03-19T03:45:54.178Z,100037
2023-03-19T03:51:45.133Z,100054
2023-03-19T03:57:36.727Z,100051
2023-03-19T04:03:28.392Z,100051
2023-03-19T04:09:20.401Z,100052
2023-03-19T04:15:11.828Z,100058
2023-03-19T04:21:03.000Z,100066
2023-03-19T04:26:54.593Z,100081
2023-03-19T04:32:47.200Z,100082
2023-03-19T04:38:38.862Z,100075
2023-03-19T04:44:30.646Z,100076
2023-03-19T04:50:22.097Z,100086
2023-03-19T04:56:13.395Z,100090
2023-03-19T05:02:04.858Z,100097
2023-03-19T05:07:55.533Z,100091
2023-03-19T05:13:48.405Z,100094
2023-03-19T05:19:39.665Z,100096
2023-03-19T05:25:30.595Z,100099
2023-03-19T05:31:22.399Z,100098
2023-03-19T05:37:14.572Z,100105
2023-03-19T05:43:06.585Z,100118
2023-03-19T05:48:57.299Z,100119
2023-03-19T05:54:48.572Z,100113
2023-03-19T06:00:40.030Z,100113
2023-03-19T06:06:30.609Z,100120
2023-03-19T06:12:21.156Z,100128
2023-03-19T06:18:12.383Z,100130
2023-03-19T06:24:04.338Z,100131
2023-03-19T06:29:55.514Z,100136
2023-03-19T06:35:46.502Z,100133
2023-03-19T06:41:37.783Z,100146
2023-03-19T06:47:29.143Z,100150
2023-03-19T06:53:21.239Z,100152
2023-03-19T06:59:13.400Z,100161
2023-03-19T07:05:05.147Z,100174
2023-03-19T07:10:56.094Z,100180
2023-03-19T07:16:47.449Z,100190
2023-03-19T07:22:39.407Z,100199
2023-03-19T07:28:32.366Z,100200
2023-03-19T07:34:23.211Z,100210
2023-03-19T07:40:14.817Z,100211
2023-03-19T07:46:06.552Z,100210
2023-03-19T07:51:56.009Z,100205
2023-03-19T07:57:45.322Z,100210
2023-03-19T08:03:37.929Z,100210
2023-03-19T08:09:29.848Z,100205
2023-03-19T08:15:21.693Z,100206
2023-03-19T08:21:14.666Z,100206
2023-03-19T08:27:06.299Z,100206
2023-03-19T08:32:59.014Z,100217
2023-03-19T08:38:50.843Z,100216
2023-03-19T08:44:43.631Z,100218
2023-03-19T08:50:36.695Z,100228
2023-03-19T08:56:29.232Z,100237
2023-03-19T09:02:20.639Z,100244
2023-03-19T09:08:11.574Z,100247
2023-03-19T09:14:02.234Z,100246
2023-03-19T09:19:54.034Z,100239
2023-03-19T09:25:44.346Z,100244
2023-03-19T09:31:35.848Z,100242
2023-03-19T09:37:26.658Z,100251
2023-03-19T09:43:18.684Z,100260
2023-03-19T09:49:09.562Z,100257
2023-03-19T09:55:00.490Z,100255
2023-03-19T10:00:50.758Z,100257
2023-03-19T10:06:41.153Z,100258
2023-03-19T10:12:31.516Z,100265
2023-03-19T10:18:22.738Z,100274
2023-03-19T10:24:14.074Z,100270
2023-03-19T10:30:04.447Z,100266
2023-03-19T10:35:55.013Z,100271
2023-03-19T10:41:45.670Z,100272
2023-03-19T10:47:35.710Z,100260
2023-03-19T10:53:26.843Z,100266
2023-03-19T10:59:17.784Z,100270
2023-03-19T11:05:07.798Z,100267
2023-03-19T11:10:58.487Z,100269
2023-03-19T11:16:49.808Z,100262
2023-03-19T11:22:40.250Z,100266
2023-03-19T11:29:40.679Z,100265
2023-03-19T11:35:29.601Z,100268
2023-03-19T11:41:21.993Z,100259
2023-03-19T11:47:30.559Z,100262
2023-03-19T11:53:19.420Z,100260
2023-03-19T11:59:09.754Z,100257
2023-03-19T12:05:01.895Z,100250
2023-03-19T12:10:54.212Z,100249
2023-03-19T12:16:51.982Z,100248
2023-03-19T12:22:41.767Z,100250
2023-03-19T12:28:32.405Z,100245
2023-03-19T12:34:24.534Z,100249
2023-03-19T12:40:18.651Z,100244
2023-03-19T12:46:09.596Z,100244
2023-03-19T12:52:00.279Z,100243
2023-03-19T12:57:52.073Z,100245
2023-03-19T13:03:42.904Z,100237
2023-03-19T13:09:34.168Z,100243
2023-03-19T13:15:25.510Z,100242
2023-03-19T13:21:16.827Z,100241
2023-03-19T13:27:08.919Z,100240
2023-03-19T13:33:00.846Z,100233
2023-03-19T13:38:51.634Z,100231
2023-03-19T13:44:42.929Z,100237
2023-03-19T13:50:34.690Z,100250
2023-03-19T13:56:33.480Z,100252
2023-03-19T14:02:23.853Z,100258
2023-03-19T14:08:14.764Z,100259
2023-03-19T14:14:06.596Z,100248
2023-03-19T14:19:59.271Z,100245
2023-03-19T14:25:56.844Z,100239
2023-03-19T14:31:49.011Z,100241
2023-03-19T14:37:40.377Z,100234
2023-03-19T14:43:31.672Z,100229
2023-03-19T14:49:25.628Z,100225
2023-03-19T14:55:17.337Z,100228
2023-03-19T15:01:08.892Z,100225
2023-03-19T15:07:00.921Z,100230
2023-03-19T15:12:55.201Z,100235
2023-03-19T15:18:54.785Z,100229
2023-03-19T15:24:47.560Z,100233
2023-03-19T15:31:30.856Z,100233
2023-03-19T15:37:51.058Z,100237
2023-03-19T15:43:42.062Z,100246
2023-03-19T15:49:32.347Z,100247
2023-03-19T15:55:21.997Z,100243
2023-03-19T16:01:17.435Z,100239
2023-03-19T16:07:10.889Z,100247
2023-03-19T16:13:02.315Z,100254
2023-03-19T16:18:54.332Z,100259
2023-03-19T16:24:47.552Z,100269
2023-03-19T16:30:39.160Z,100280
2023-03-19T16:36:29.262Z,100288
2023-03-19T16:42:20.885Z,100305
2023-03-19T16:48:13.115Z,100316
2023-03-19T16:54:04.992Z,100335
2023-03-19T16:59:57.570Z,100347
2023-03-19T17:05:48.963Z,100355
2023-03-19T17:11:40.729Z,100356
2023-03-19T17:17:34.561Z,100374
2023-03-19T17:23:26.144Z,100394
2023-03-19T17:29:18.248Z,100399
2023-03-19T17:35:28.859Z,100399
2023-03-19T17:41:19.481Z,100412
2023-03-19T17:47:29.242Z,100422
2023-03-19T17:59:52.464Z,100435
2023-03-19T18:05:46.599Z,100437
2023-03-19T18:11:40.633Z,100442
2023-03-19T18:17:36.744Z,100439
2023-03-19T18:23:27.284Z,100455
2023-03-19T18:29:18.712Z,100460
2023-03-19T18:35:09.769Z,100459
2023-03-19T18:41:01.251Z,100461
2023-03-19T18:46:54.142Z,100468
2023-03-19T18:52:43.903Z,100473
2023-03-19T18:58:34.888Z,100477
2023-03-19T19:04:23.805Z,100490
2023-03-19T21:44:51.022Z,100653
2023-03-19T21:56:51.457Z,100658
2023-03-19T22:08:35.251Z,100653
2023-03-19T22:14:43.929Z,100664
2023-03-19T22:20:48.208Z,100667
2023-03-19T22:33:01.361Z,100666
2023-03-19T22:39:00.686Z,100675
2023-03-19T22:45:14.800Z,100681
2023-03-19T22:51:22.278Z,100686
2023-03-19T22:57:29.909Z,100694
2023-03-19T23:03:34.173Z,100705
2023-03-19T23:09:29.877Z,100712
2023-03-19T23:22:00.801Z,100708
2023-03-19T23:33:58.559Z,100713
2023-03-19T23:58:39.906Z,100742
